sensor_id;sensor_type;location;lat;lon;timestamp;pressure;altitude;pressure_sealevel;temperature;humidity
56894;BME280;43392;50.078;13.704;2023-04-08T00:00:09;97066.00;;;4.69;77.02
56894;BME280;43392;50.078;13.704;2023-04-08T00:02:36;97071.53;;;4.67;77.69
56894;BME280;43392;50.078;13.704;2023-04-08T00:05:03;97068.19;;;4.60;78.11
56894;BME280;43392;50.078;13.704;2023-04-08T00:07:30;97066.94;;;4.51;79.12
56894;BME280;43392;50.078;13.704;2023-04-08T00:09:56;97059.94;;;4.45;79.47
56894;BME280;43392;50.078;13.704;2023-04-08T00:12:23;97061.22;;;4.43;79.11
56894;BME280;43392;50.078;13.704;2023-04-08T00:14:51;97060.16;;;4.44;79.17
56894;BME280;43392;50.078;13.704;2023-04-08T00:17:17;97060.03;;;4.50;79.50
56894;BME280;43392;50.078;13.704;2023-04-08T00:19:44;97047.69;;;4.44;79.85
56894;BME280;43392;50.078;13.704;2023-04-08T00:22:11;97048.25;;;4.46;80.54
56894;BME280;43392;50.078;13.704;2023-04-08T00:24:38;97051.63;;;4.42;81.01
56894;BME280;43392;50.078;13.704;2023-04-08T00:27:05;97050.59;;;4.43;80.07
56894;BME280;43392;50.078;13.704;2023-04-08T00:29:31;97053.72;;;4.40;81.77
56894;BME280;43392;50.078;13.704;2023-04-08T00:31:59;97053.84;;;4.33;82.06
56894;BME280;43392;50.078;13.704;2023-04-08T00:34:27;97050.59;;;4.31;81.84
56894;BME280;43392;50.078;13.704;2023-04-08T00:36:54;97059.03;;;4.40;81.14
56894;BME280;43392;50.078;13.704;2023-04-08T00:39:20;97055.91;;;4.43;81.28
56894;BME280;43392;50.078;13.704;2023-04-08T00:41:47;97049.09;;;4.35;81.67
56894;BME280;43392;50.078;13.704;2023-04-08T00:44:13;97059.63;;;4.30;82.04
56894;BME280;43392;50.078;13.704;2023-04-08T00:46:40;97054.31;;;4.30;81.93
56894;BME280;43392;50.078;13.704;2023-04-08T00:49:08;97056.97;;;4.30;81.31
56894;BME280;43392;50.078;13.704;2023-04-08T00:51:35;97053.25;;;4.31;82.23
56894;BME280;43392;50.078;13.704;2023-04-08T00:54:02;97050.59;;;4.31;81.44
56894;BME280;43392;50.078;13.704;2023-04-08T00:56:30;97050.94;;;4.35;81.06
56894;BME280;43392;50.078;13.704;2023-04-08T00:58:58;97051.63;;;4.42;81.00
56894;BME280;43392;50.078;13.704;2023-04-08T01:01:30;97054.84;;;4.44;81.32
56894;BME280;43392;50.078;13.704;2023-04-08T01:04:06;97053.72;;;4.40;81.52
56894;BME280;43392;50.078;13.704;2023-04-08T01:06:39;97055.31;;;4.41;81.36
56894;BME280;43392;50.078;13.704;2023-04-08T01:09:12;97058.06;;;4.46;81.32
56894;BME280;43392;50.078;13.704;2023-04-08T01:11:43;97057.50;;;4.44;81.97
56894;BME280;43392;50.078;13.704;2023-04-08T01:14:10;97056.50;;;4.22;83.01
56894;BME280;43392;50.078;13.704;2023-04-08T01:16:39;97047.06;;;4.14;83.08
56894;BME280;43392;50.078;13.704;2023-04-08T01:19:07;97049.47;;;4.16;83.22
56894;BME280;43392;50.078;13.704;2023-04-08T01:21:36;97049.59;;;4.09;84.25
56894;BME280;43392;50.078;13.704;2023-04-08T01:24:08;97048.56;;;3.98;85.51
56894;BME280;43392;50.078;13.704;2023-04-08T01:26:39;97052.47;;;3.96;85.91
56894;BME280;43392;50.078;13.704;2023-04-08T01:29:07;97049.72;;;3.91;86.19
56894;BME280;43392;50.078;13.704;2023-04-08T01:31:35;97027.34;;;3.75;86.42
56894;BME280;43392;50.078;13.704;2023-04-08T01:34:03;97051.69;;;3.84;87.31
56894;BME280;43392;50.078;13.704;2023-04-08T01:36:32;97051.91;;;3.82;86.81
56894;BME280;43392;50.078;13.704;2023-04-08T01:39:01;97050.28;;;3.93;87.21
56894;BME280;43392;50.078;13.704;2023-04-08T01:41:30;97049.00;;;3.95;86.37
56894;BME280;43392;50.078;13.704;2023-04-08T01:43:59;97054.31;;;4.07;85.74
56894;BME280;43392;50.078;13.704;2023-04-08T01:46:26;97049.59;;;4.09;85.60
56894;BME280;43392;50.078;13.704;2023-04-08T01:48:54;97044.41;;;4.14;84.99
56894;BME280;43392;50.078;13.704;2023-04-08T01:51:23;97050.63;;;4.20;84.96
56894;BME280;43392;50.078;13.704;2023-04-08T01:53:51;97049.59;;;4.21;84.90
56894;BME280;43392;50.078;13.704;2023-04-08T01:56:21;97043.00;;;4.23;84.79
56894;BME280;43392;50.078;13.704;2023-04-08T01:58:51;97044.84;;;4.23;85.20
56894;BME280;43392;50.078;13.704;2023-04-08T02:01:21;97042.78;;;4.13;86.00
56894;BME280;43392;50.078;13.704;2023-04-08T02:03:50;97040.97;;;4.02;86.78
56894;BME280;43392;50.078;13.704;2023-04-08T02:06:20;97044.84;;;3.88;87.37
56894;BME280;43392;50.078;13.704;2023-04-08T02:08:47;97046.72;;;3.87;87.89
56894;BME280;43392;50.078;13.704;2023-04-08T02:11:13;97049.84;;;3.84;88.33
56894;BME280;43392;50.078;13.704;2023-04-08T02:13:40;97055.84;;;3.80;88.62
56894;BME280;43392;50.078;13.704;2023-04-08T02:16:15;97050.16;;;3.76;88.88
56894;BME280;43392;50.078;13.704;2023-04-08T02:18:48;97054.22;;;3.79;89.10
56894;BME280;43392;50.078;13.704;2023-04-08T02:21:17;97046.50;;;3.77;89.78
56894;BME280;43392;50.078;13.704;2023-04-08T02:23:48;97048.09;;;3.78;90.15
56894;BME280;43392;50.078;13.704;2023-04-08T02:26:16;97045.91;;;3.75;90.17
56894;BME280;43392;50.078;13.704;2023-04-08T02:28:44;97041.63;;;3.74;89.84
56894;BME280;43392;50.078;13.704;2023-04-08T02:31:13;97049.59;;;3.74;89.97
56894;BME280;43392;50.078;13.704;2023-04-08T02:33:40;97040.00;;;3.73;90.12
56894;BME280;43392;50.078;13.704;2023-04-08T02:36:10;97053.50;;;3.72;90.31
56894;BME280;43392;50.078;13.704;2023-04-08T02:38:37;97052.69;;;3.71;90.51
56894;BME280;43392;50.078;13.704;2023-04-08T02:41:05;97047.97;;;3.73;89.89
56894;BME280;43392;50.078;13.704;2023-04-08T02:43:31;97062.97;;;3.79;89.84
56894;BME280;43392;50.078;13.704;2023-04-08T02:45:58;97058.00;;;3.83;89.09
56894;BME280;43392;50.078;13.704;2023-04-08T02:48:27;97051.78;;;3.89;88.69
56894;BME280;43392;50.078;13.704;2023-04-08T02:50:54;97054.56;;;3.94;88.17
56894;BME280;43392;50.078;13.704;2023-04-08T02:53:23;97063.91;;;3.96;87.75
56894;BME280;43392;50.078;13.704;2023-04-08T02:55:49;97066.88;;;4.00;87.80
56894;BME280;43392;50.078;13.704;2023-04-08T02:58:16;97059.41;;;3.97;87.19
56894;BME280;43392;50.078;13.704;2023-04-08T03:00:43;97061.00;;;3.98;87.19
56894;BME280;43392;50.078;13.704;2023-04-08T03:03:09;97053.88;;;3.98;87.00
56894;BME280;43392;50.078;13.704;2023-04-08T03:05:36;97056.53;;;3.98;87.09
56894;BME280;43392;50.078;13.704;2023-04-08T03:08:02;97059.16;;;3.98;87.15
56894;BME280;43392;50.078;13.704;2023-04-08T03:10:32;97064.25;;;4.00;87.16
56894;BME280;43392;50.078;13.704;2023-04-08T03:12:59;97049.69;;;4.02;86.76
56894;BME280;43392;50.078;13.704;2023-04-08T03:15:25;97050.28;;;4.04;86.84
56894;BME280;43392;50.078;13.704;2023-04-08T03:17:52;97060.44;;;4.08;86.84
56894;BME280;43392;50.078;13.704;2023-04-08T03:20:18;97061.25;;;4.08;86.86
56894;BME280;43392;50.078;13.704;2023-04-08T03:22:45;97063.66;;;4.10;86.79
56894;BME280;43392;50.078;13.704;2023-04-08T03:25:12;97057.31;;;4.11;87.01
56894;BME280;43392;50.078;13.704;2023-04-08T03:27:40;97062.50;;;4.06;87.92
56894;BME280;43392;50.078;13.704;2023-04-08T03:30:07;97064.72;;;3.97;88.49
56894;BME280;43392;50.078;13.704;2023-04-08T03:32:33;97062.72;;;3.92;89.23
56894;BME280;43392;50.078;13.704;2023-04-08T03:35:00;97072.66;;;3.85;89.26
56894;BME280;43392;50.078;13.704;2023-04-08T03:37:27;97069.09;;;3.80;90.04
56894;BME280;43392;50.078;13.704;2023-04-08T03:39:53;97065.75;;;3.84;89.69
56894;BME280;43392;50.078;13.704;2023-04-08T03:42:20;97067.34;;;3.85;89.45
56894;BME280;43392;50.078;13.704;2023-04-08T03:44:48;97066.91;;;3.88;89.36
56894;BME280;43392;50.078;13.704;2023-04-08T03:47:15;97074.28;;;3.86;89.92
56894;BME280;43392;50.078;13.704;2023-04-08T03:49:42;97066.44;;;3.80;90.04
56894;BME280;43392;50.078;13.704;2023-04-08T03:52:08;97068.28;;;3.79;90.23
56894;BME280;43392;50.078;13.704;2023-04-08T03:54:35;97059.75;;;3.77;90.20
56894;BME280;43392;50.078;13.704;2023-04-08T03:57:01;97069.78;;;3.75;90.40
56894;BME280;43392;50.078;13.704;2023-04-08T03:59:28;97076.13;;;3.74;90.78
56894;BME280;43392;50.078;13.704;2023-04-08T04:01:56;97084.41;;;3.66;91.47
56894;BME280;43392;50.078;13.704;2023-04-08T04:04:23;97084.41;;;3.66;91.56
56894;BME280;43392;50.078;13.704;2023-04-08T04:06:50;97093.28;;;3.60;92.34
56894;BME280;43392;50.078;13.704;2023-04-08T04:09:17;97091.06;;;3.57;92.29
56894;BME280;43392;50.078;13.704;2023-04-08T04:11:43;97091.75;;;3.53;92.96
56894;BME280;43392;50.078;13.704;2023-04-08T04:14:10;97098.09;;;3.52;92.87
56894;BME280;43392;50.078;13.704;2023-04-08T04:16:37;97092.69;;;3.58;92.69
56894;BME280;43392;50.078;13.704;2023-04-08T04:19:05;97087.41;;;3.58;92.82
56894;BME280;43392;50.078;13.704;2023-04-08T04:21:31;97100.66;;;3.58;92.79
56894;BME280;43392;50.078;13.704;2023-04-08T04:23:58;97098.44;;;3.55;93.07
56894;BME280;43392;50.078;13.704;2023-04-08T04:26:25;97087.16;;;3.48;93.25
56894;BME280;43392;50.078;13.704;2023-04-08T04:28:51;97099.81;;;3.46;93.08
56894;BME280;43392;50.078;13.704;2023-04-08T04:31:18;97098.31;;;3.50;93.55
56894;BME280;43392;50.078;13.704;2023-04-08T04:33:46;97098.09;;;3.52;93.48
56894;BME280;43392;50.078;13.704;2023-04-08T04:36:14;97105.34;;;3.56;93.14
56894;BME280;43392;50.078;13.704;2023-04-08T04:38:41;97114.94;;;3.57;93.64
56894;BME280;43392;50.078;13.704;2023-04-08T04:41:08;97101.09;;;3.55;93.50
56894;BME280;43392;50.078;13.704;2023-04-08T04:43:34;97111.72;;;3.55;93.43
56894;BME280;43392;50.078;13.704;2023-04-08T04:46:01;97105.47;;;3.50;93.65
56894;BME280;43392;50.078;13.704;2023-04-08T04:48:31;97108.94;;;3.50;93.50
56894;BME280;43392;50.078;13.704;2023-04-08T04:50:59;97106.72;;;3.47;93.62
56894;BME280;43392;50.078;13.704;2023-04-08T04:53:28;97107.97;;;3.45;93.21
56894;BME280;43392;50.078;13.704;2023-04-08T04:55:55;97116.31;;;3.48;93.32
56894;BME280;43392;50.078;13.704;2023-04-08T04:58:22;97120.09;;;3.52;93.91
56894;BME280;43392;50.078;13.704;2023-04-08T05:00:48;97113.41;;;3.50;93.56
56894;BME280;43392;50.078;13.704;2023-04-08T05:03:15;97124.72;;;3.57;93.47
56894;BME280;43392;50.078;13.704;2023-04-08T05:05:42;97122.66;;;3.59;93.19
56894;BME280;43392;50.078;13.704;2023-04-08T05:08:08;97130.97;;;3.62;93.49
56894;BME280;43392;50.078;13.704;2023-04-08T05:10:39;97126.47;;;3.63;93.25
56894;BME280;43392;50.078;13.704;2023-04-08T05:13:06;97116.31;;;3.60;93.08
56894;BME280;43392;50.078;13.704;2023-04-08T05:15:32;97135.69;;;3.60;92.90
56894;BME280;43392;50.078;13.704;2023-04-08T05:17:59;97138.13;;;3.62;93.02
56894;BME280;43392;50.078;13.704;2023-04-08T05:20:26;97135.69;;;3.60;93.14
56894;BME280;43392;50.078;13.704;2023-04-08T05:22:52;97139.38;;;3.59;93.39
56894;BME280;43392;50.078;13.704;2023-04-08T05:25:19;97133.59;;;3.51;93.42
56894;BME280;43392;50.078;13.704;2023-04-08T05:27:47;97142.56;;;3.50;94.00
56894;BME280;43392;50.078;13.704;2023-04-08T05:30:13;97144.66;;;3.48;94.87
56894;BME280;43392;50.078;13.704;2023-04-08T05:32:41;97154.00;;;3.50;95.46
56894;BME280;43392;50.078;13.704;2023-04-08T05:35:08;97151.25;;;3.57;95.32
56894;BME280;43392;50.078;13.704;2023-04-08T05:37:35;97150.78;;;3.60;94.62
56894;BME280;43392;50.078;13.704;2023-04-08T05:40:01;97153.69;;;3.58;94.89
56894;BME280;43392;50.078;13.704;2023-04-08T05:42:28;97156.09;;;3.60;94.78
56894;BME280;43392;50.078;13.704;2023-04-08T05:44:56;97154.47;;;3.59;94.61
56894;BME280;43392;50.078;13.704;2023-04-08T05:47:22;97154.72;;;3.57;94.71
56894;BME280;43392;50.078;13.704;2023-04-08T05:49:49;97165.31;;;3.57;94.86
56894;BME280;43392;50.078;13.704;2023-04-08T05:52:15;97162.66;;;3.57;94.55
56894;BME280;43392;50.078;13.704;2023-04-08T05:54:42;97168.97;;;3.56;94.45
56894;BME280;43392;50.078;13.704;2023-04-08T05:57:09;97165.06;;;3.59;94.73
56894;BME280;43392;50.078;13.704;2023-04-08T05:59:35;97164.41;;;3.63;94.68
56894;BME280;43392;50.078;13.704;2023-04-08T06:02:03;97161.53;;;3.65;94.92
56894;BME280;43392;50.078;13.704;2023-04-08T06:04:30;97163.13;;;3.66;94.33
56894;BME280;43392;50.078;13.704;2023-04-08T06:06:57;97172.13;;;3.65;94.76
56894;BME280;43392;50.078;13.704;2023-04-08T06:09:26;97162.66;;;3.57;94.59
56894;BME280;43392;50.078;13.704;2023-04-08T06:11:53;97169.13;;;3.61;94.54
56894;BME280;43392;50.078;13.704;2023-04-08T06:14:21;97172.44;;;3.57;94.61
56894;BME280;43392;50.078;13.704;2023-04-08T06:16:48;97160.81;;;3.58;94.62
56894;BME280;43392;50.078;13.704;2023-04-08T06:19:16;97165.56;;;3.67;94.48
56894;BME280;43392;50.078;13.704;2023-04-08T06:21:42;97166.72;;;3.60;94.67
56894;BME280;43392;50.078;13.704;2023-04-08T06:24:09;97175.81;;;3.64;94.60
56894;BME280;43392;50.078;13.704;2023-04-08T06:26:35;97176.63;;;3.64;94.79
56894;BME280;43392;50.078;13.704;2023-04-08T06:29:02;97168.19;;;3.56;94.95
56894;BME280;43392;50.078;13.704;2023-04-08T06:33:56;97180.44;;;3.68;94.82
56894;BME280;43392;50.078;13.704;2023-04-08T06:36:24;97179.03;;;3.66;94.55
56894;BME280;43392;50.078;13.704;2023-04-08T06:38:50;97183.56;;;3.65;94.82
56894;BME280;43392;50.078;13.704;2023-04-08T06:41:17;97191.50;;;3.65;94.98
56894;BME280;43392;50.078;13.704;2023-04-08T06:43:44;97179.97;;;3.60;95.34
56894;BME280;43392;50.078;13.704;2023-04-08T06:46:10;97192.09;;;3.67;94.89
56894;BME280;43392;50.078;13.704;2023-04-08T06:48:37;97193.25;;;3.71;94.90
56894;BME280;43392;50.078;13.704;2023-04-08T06:51:04;97193.38;;;3.76;94.95
56894;BME280;43392;50.078;13.704;2023-04-08T06:53:33;97190.03;;;3.81;94.91
56894;BME280;43392;50.078;13.704;2023-04-08T06:56:00;97194.91;;;3.84;94.75
56894;BME280;43392;50.078;13.704;2023-04-08T06:58:26;97193.66;;;3.86;94.73
56894;BME280;43392;50.078;13.704;2023-04-08T07:00:54;97198.72;;;3.88;94.54
56894;BME280;43392;50.078;13.704;2023-04-08T07:03:21;97204.97;;;3.93;94.42
56894;BME280;43392;50.078;13.704;2023-04-08T07:05:47;97201.84;;;3.96;94.40
56894;BME280;43392;50.078;13.704;2023-04-08T07:08:14;97212.03;;;3.99;94.12
56894;BME280;43392;50.078;13.704;2023-04-08T07:10:42;97209.94;;;4.01;93.87
56894;BME280;43392;50.078;13.704;2023-04-08T07:13:09;97207.97;;;3.97;93.94
56894;BME280;43392;50.078;13.704;2023-04-08T07:15:35;97211.56;;;4.02;93.99
56894;BME280;43392;50.078;13.704;2023-04-08T07:18:02;97216.78;;;4.09;93.79
56894;BME280;43392;50.078;13.704;2023-04-08T07:20:29;97217.25;;;4.18;93.48
56894;BME280;43392;50.078;13.704;2023-04-08T07:22:55;97215.06;;;4.26;92.98
56894;BME280;43392;50.078;13.704;2023-04-08T07:25:22;97215.97;;;4.32;92.86
56894;BME280;43392;50.078;13.704;2023-04-08T07:27:50;97225.56;;;4.33;92.70
56894;BME280;43392;50.078;13.704;2023-04-08T07:30:17;97225.91;;;4.36;92.69
56894;BME280;43392;50.078;13.704;2023-04-08T07:32:44;97228.47;;;4.43;92.32
56894;BME280;43392;50.078;13.704;2023-04-08T07:35:10;97235.38;;;4.44;92.01
56894;BME280;43392;50.078;13.704;2023-04-08T07:37:37;97236.19;;;4.44;91.84
56894;BME280;43392;50.078;13.704;2023-04-08T07:40:05;97234.56;;;4.43;91.85
56894;BME280;43392;50.078;13.704;2023-04-08T07:42:31;97233.78;;;4.43;92.03
56894;BME280;43392;50.078;13.704;2023-04-08T07:44:59;97238.28;;;4.42;92.12
56894;BME280;43392;50.078;13.704;2023-04-08T07:47:26;97237.00;;;4.45;92.14
56894;BME280;43392;50.078;13.704;2023-04-08T07:49:53;97243.47;;;4.49;92.44
56894;BME280;43392;50.078;13.704;2023-04-08T07:52:19;97239.44;;;4.46;92.34
56894;BME280;43392;50.078;13.704;2023-04-08T07:54:46;97246.69;;;4.51;92.25
56894;BME280;43392;50.078;13.704;2023-04-08T07:57:13;97240.94;;;4.54;92.30
56894;BME280;43392;50.078;13.704;2023-04-08T07:59:39;97246.63;;;4.57;92.28
56894;BME280;43392;50.078;13.704;2023-04-08T08:02:07;97249.84;;;4.59;92.24
56894;BME280;43392;50.078;13.704;2023-04-08T08:04:34;97254.34;;;4.59;92.50
56894;BME280;43392;50.078;13.704;2023-04-08T08:07:01;97255.47;;;4.63;92.50
56894;BME280;43392;50.078;13.704;2023-04-08T08:09:27;97253.44;;;4.65;92.45
56894;BME280;43392;50.078;13.704;2023-04-08T08:11:54;97246.50;;;4.64;92.82
56894;BME280;43392;50.078;13.704;2023-04-08T08:14:20;97261.97;;;4.67;92.65
56894;BME280;43392;50.078;13.704;2023-04-08T08:16:50;97267.28;;;4.67;92.83
56894;BME280;43392;50.078;13.704;2023-04-08T08:19:18;97263.56;;;4.68;92.93
56894;BME280;43392;50.078;13.704;2023-04-08T08:21:45;97262.44;;;4.64;92.92
56894;BME280;43392;50.078;13.704;2023-04-08T08:24:11;97276.41;;;4.71;93.00
56894;BME280;43392;50.078;13.704;2023-04-08T08:26:38;97269.69;;;4.68;93.17
56894;BME280;43392;50.078;13.704;2023-04-08T08:29:06;97282.28;;;4.73;93.20
56894;BME280;43392;50.078;13.704;2023-04-08T08:31:33;97284.72;;;4.75;93.61
56894;BME280;43392;50.078;13.704;2023-04-08T08:34:00;97288.78;;;4.77;93.79
56894;BME280;43392;50.078;13.704;2023-04-08T08:36:28;97288.28;;;4.80;93.38
56894;BME280;43392;50.078;13.704;2023-04-08T08:38:55;97285.53;;;4.87;93.67
56894;BME280;43392;50.078;13.704;2023-04-08T08:41:22;97292.56;;;4.93;93.55
56894;BME280;43392;50.078;13.704;2023-04-08T08:43:48;97296.63;;;4.95;93.38
56894;BME280;43392;50.078;13.704;2023-04-08T08:46:16;97296.16;;;4.98;93.52
56894;BME280;43392;50.078;13.704;2023-04-08T08:48:43;97308.75;;;5.03;93.40
56894;BME280;43392;50.078;13.704;2023-04-08T08:51:11;97303.78;;;5.06;92.93
56894;BME280;43392;50.078;13.704;2023-04-08T08:53:39;97307.03;;;5.08;92.76
56894;BME280;43392;50.078;13.704;2023-04-08T08:56:09;97316.16;;;5.12;92.41
56894;BME280;43392;50.078;13.704;2023-04-08T08:58:37;97311.19;;;5.16;92.19
56894;BME280;43392;50.078;13.704;2023-04-08T09:01:32;97319.63;;;5.13;91.98
56894;BME280;43392;50.078;13.704;2023-04-08T09:04:10;97324.38;;;5.11;92.17
56894;BME280;43392;50.078;13.704;2023-04-08T09:06:36;97323.75;;;5.09;92.22
56894;BME280;43392;50.078;13.704;2023-04-08T09:09:05;97338.44;;;5.11;91.87
56894;BME280;43392;50.078;13.704;2023-04-08T09:11:34;97330.59;;;5.16;91.59
56894;BME280;43392;50.078;13.704;2023-04-08T09:14:01;97332.44;;;5.27;91.73
56894;BME280;43392;50.078;13.704;2023-04-08T09:16:29;97331.16;;;5.42;91.57
56894;BME280;43392;50.078;13.704;2023-04-08T09:19:07;97335.75;;;5.58;90.96
56894;BME280;43392;50.078;13.704;2023-04-08T09:21:34;97346.03;;;5.66;90.21
56894;BME280;43392;50.078;13.704;2023-04-08T09:24:00;97346.13;;;5.71;90.15
56894;BME280;43392;50.078;13.704;2023-04-08T09:26:28;97343.59;;;5.76;89.51
56894;BME280;43392;50.078;13.704;2023-04-08T09:29:00;97342.53;;;5.77;89.31
56894;BME280;43392;50.078;13.704;2023-04-08T09:31:28;97341.59;;;5.83;89.35
56894;BME280;43392;50.078;13.704;2023-04-08T09:33:56;97359.75;;;5.97;89.22
56894;BME280;43392;50.078;13.704;2023-04-08T09:36:24;97355.66;;;6.07;88.67
56894;BME280;43392;50.078;13.704;2023-04-08T09:38:52;97354.81;;;6.18;88.30
56894;BME280;43392;50.078;13.704;2023-04-08T09:41:19;97353.97;;;6.29;87.60
56894;BME280;43392;50.078;13.704;2023-04-08T09:43:50;97352.78;;;6.36;87.10
56894;BME280;43392;50.078;13.704;2023-04-08T09:46:20;97351.50;;;6.39;85.82
56894;BME280;43392;50.078;13.704;2023-04-08T09:48:56;97351.25;;;6.40;86.20
56894;BME280;43392;50.078;13.704;2023-04-08T09:51:24;97348.56;;;6.40;85.92
56894;BME280;43392;50.078;13.704;2023-04-08T09:53:58;97352.63;;;6.43;85.46
56894;BME280;43392;50.078;13.704;2023-04-08T09:56:30;97353.28;;;6.50;85.93
56894;BME280;43392;50.078;13.704;2023-04-08T09:59:08;97352.63;;;6.59;85.57
56894;BME280;43392;50.078;13.704;2023-04-08T10:01:38;97343.19;;;6.68;85.74
56894;BME280;43392;50.078;13.704;2023-04-08T10:04:09;97355.81;;;6.73;84.31
56894;BME280;43392;50.078;13.704;2023-04-08T10:06:38;97355.50;;;6.69;83.61
56894;BME280;43392;50.078;13.704;2023-04-08T10:09:06;97352.81;;;6.69;83.34
56894;BME280;43392;50.078;13.704;2023-04-08T10:11:34;97360.00;;;6.69;82.49
56894;BME280;43392;50.078;13.704;2023-04-08T10:14:03;97357.03;;;6.65;82.73
56894;BME280;43392;50.078;13.704;2023-04-08T10:16:30;97354.19;;;6.72;82.75
56894;BME280;43392;50.078;13.704;2023-04-08T10:18:56;97352.75;;;6.81;82.27
56894;BME280;43392;50.078;13.704;2023-04-08T10:21:37;97357.50;;;6.96;82.64
56894;BME280;43392;50.078;13.704;2023-04-08T10:24:08;97358.66;;;7.00;81.61
56894;BME280;43392;50.078;13.704;2023-04-08T10:26:35;97366.06;;;6.98;81.63
56894;BME280;43392;50.078;13.704;2023-04-08T10:29:37;97372.38;;;6.92;81.61
56894;BME280;43392;50.078;13.704;2023-04-08T10:32:03;97369.28;;;6.83;82.55
56894;BME280;43392;50.078;13.704;2023-04-08T10:34:30;97368.91;;;6.75;81.96
56894;BME280;43392;50.078;13.704;2023-04-08T10:36:57;97374.97;;;6.70;82.08
56894;BME280;43392;50.078;13.704;2023-04-08T10:39:30;97378.09;;;6.67;82.23
56894;BME280;43392;50.078;13.704;2023-04-08T10:42:00;97375.03;;;6.58;81.92
56894;BME280;43392;50.078;13.704;2023-04-08T10:44:28;97387.84;;;6.61;82.42
56894;BME280;43392;50.078;13.704;2023-04-08T10:46:56;97387.84;;;6.61;82.74
56894;BME280;43392;50.078;13.704;2023-04-08T10:49:31;97393.59;;;6.53;81.72
56894;BME280;43392;50.078;13.704;2023-04-08T10:51:58;97387.34;;;6.48;82.00
56894;BME280;43392;50.078;13.704;2023-04-08T10:54:25;97392.91;;;6.46;82.39
56894;BME280;43392;50.078;13.704;2023-04-08T10:56:52;97395.59;;;6.46;82.87
56894;BME280;43392;50.078;13.704;2023-04-08T10:59:28;97391.94;;;6.52;82.71
56894;BME280;43392;50.078;13.704;2023-04-08T11:01:56;97391.78;;;6.59;81.95
56894;BME280;43392;50.078;13.704;2023-04-08T11:04:24;97386.25;;;6.60;80.69
56894;BME280;43392;50.078;13.704;2023-04-08T11:06:51;97385.44;;;6.60;80.30
56894;BME280;43392;50.078;13.704;2023-04-08T11:09:18;97385.84;;;6.68;80.29
56894;BME280;43392;50.078;13.704;2023-04-08T11:11:45;97389.97;;;6.76;80.16
56894;BME280;43392;50.078;13.704;2023-04-08T11:14:12;97383.69;;;6.82;79.74
56894;BME280;43392;50.078;13.704;2023-04-08T11:16:40;97390.16;;;6.86;79.31
56894;BME280;43392;50.078;13.704;2023-04-08T11:19:08;97398.47;;;6.90;79.30
56894;BME280;43392;50.078;13.704;2023-04-08T11:21:35;97390.72;;;6.88;79.28
56894;BME280;43392;50.078;13.704;2023-04-08T11:24:06;97391.06;;;6.92;78.69
56894;BME280;43392;50.078;13.704;2023-04-08T11:26:36;97399.84;;;6.92;78.15
56894;BME280;43392;50.078;13.704;2023-04-08T11:29:03;97402.03;;;6.95;77.71
56894;BME280;43392;50.078;13.704;2023-04-08T11:31:31;97391.69;;;6.99;77.27
56894;BME280;43392;50.078;13.704;2023-04-08T11:33:58;97400.03;;;7.02;77.32
56894;BME280;43392;50.078;13.704;2023-04-08T11:36:27;97401.97;;;7.07;77.20
56894;BME280;43392;50.078;13.704;2023-04-08T11:38:54;97402.53;;;7.09;78.00
56894;BME280;43392;50.078;13.704;2023-04-08T11:41:21;97389.75;;;7.11;77.30
56894;BME280;43392;50.078;13.704;2023-04-08T11:43:52;97399.53;;;7.05;77.08
56894;BME280;43392;50.078;13.704;2023-04-08T11:46:19;97402.09;;;7.00;76.91
56894;BME280;43392;50.078;13.704;2023-04-08T11:49:07;97398.56;;;6.95;77.49
56894;BME280;43392;50.078;13.704;2023-04-08T11:51:57;97398.22;;;6.91;77.30
56894;BME280;43392;50.078;13.704;2023-04-08T11:54:27;97404.63;;;6.90;78.05
56894;BME280;43392;50.078;13.704;2023-04-08T11:56:54;97406.47;;;6.90;78.05
56894;BME280;43392;50.078;13.704;2023-04-08T11:59:22;97411.16;;;6.83;78.35
56894;BME280;43392;50.078;13.704;2023-04-08T12:01:50;97414.56;;;6.78;78.72
56894;BME280;43392;50.078;13.704;2023-04-08T12:04:17;97409.72;;;6.92;79.76
56894;BME280;43392;50.078;13.704;2023-04-08T12:06:43;97409.25;;;6.95;78.15
56894;BME280;43392;50.078;13.704;2023-04-08T12:09:12;97416.31;;;6.89;77.63
56894;BME280;43392;50.078;13.704;2023-04-08T12:11:40;97410.34;;;6.82;77.52
56894;BME280;43392;50.078;13.704;2023-04-08T12:14:06;97422.75;;;6.77;77.47
56894;BME280;43392;50.078;13.704;2023-04-08T12:16:34;97424.41;;;6.78;77.83
56894;BME280;43392;50.078;13.704;2023-04-08T12:19:00;97422.84;;;6.82;79.07
56894;BME280;43392;50.078;13.704;2023-04-08T12:21:27;97425.28;;;6.83;78.13
56894;BME280;43392;50.078;13.704;2023-04-08T12:23:53;97424.78;;;6.86;78.07
56894;BME280;43392;50.078;13.704;2023-04-08T12:26:21;97425.22;;;6.95;78.78
56894;BME280;43392;50.078;13.704;2023-04-08T12:28:48;97416.09;;;7.07;78.33
56894;BME280;43392;50.078;13.704;2023-04-08T12:31:15;97427.25;;;7.21;77.34
56894;BME280;43392;50.078;13.704;2023-04-08T12:33:42;97427.91;;;7.28;76.83
56894;BME280;43392;50.078;13.704;2023-04-08T12:36:08;97424.97;;;7.29;76.86
56894;BME280;43392;50.078;13.704;2023-04-08T12:38:35;97426.34;;;7.32;76.27
56894;BME280;43392;50.078;13.704;2023-04-08T12:41:02;97431.47;;;7.33;75.89
56894;BME280;43392;50.078;13.704;2023-04-08T12:43:30;97434.88;;;7.29;75.49
56894;BME280;43392;50.078;13.704;2023-04-08T12:45:57;97423.59;;;7.27;75.28
56894;BME280;43392;50.078;13.704;2023-04-08T12:48:24;97428.06;;;7.21;75.54
56894;BME280;43392;50.078;13.704;2023-04-08T12:50:50;97438.16;;;7.19;76.28
56894;BME280;43392;50.078;13.704;2023-04-08T12:53:17;97422.66;;;7.16;76.10
56894;BME280;43392;50.078;13.704;2023-04-08T12:55:43;97432.91;;;7.24;76.44
56894;BME280;43392;50.078;13.704;2023-04-08T12:58:10;97428.88;;;7.22;75.61
56894;BME280;43392;50.078;13.704;2023-04-08T13:00:38;97437.13;;;7.20;77.08
56894;BME280;43392;50.078;13.704;2023-04-08T13:03:10;97424.34;;;7.22;76.43
56894;BME280;43392;50.078;13.704;2023-04-08T13:05:37;97431.78;;;7.20;76.36